Time;durP1;ratioP1;P1;durP2;ratioP2;P2;SDS_P1;SDS_P2;PMS_P1;PMS_P2;Temp;Humidity;BMP_temperature;BMP_pressure;BME280_temperature;BME280_humidity;BME280_pressure;Samples;Min_cycle;Max_cycle;Signal;HPM_P1;HPM_P2
2023/03/27 00:01:29;;;;;;;951.33;872.10;;;;;;;22.60;42.02;98712.59;20540540;28;20130;-71
2023/03/27 00:11:29;;;;;;;969.72;889.33;;;;;;;22.58;41.92;98691.63;20541861;28;20047;-71
2023/03/27 00:21:30;;;;;;;970.17;889.65;;;;;;;22.59;42.41;98676.66;20532567;28;20045;-71
2023/03/27 00:31:30;;;;;;;956.35;876.72;;;;;;;22.58;42.29;98661.81;20532398;28;20053;-72
2023/03/27 00:41:32;;;;;;;937.67;859.28;;;;;;;22.57;42.35;98661.00;20528855;28;20368;-71
2023/03/27 00:51:35;;;;;;;984.60;903.23;;;;;;;22.57;42.42;98636.41;20528822;28;20137;-73
2023/03/27 01:01:37;;;;;;;986.22;905.17;;;;;;;22.58;42.62;98622.25;20529585;28;20054;-73
2023/03/27 01:12:07;;;;;;;995.80;914.30;;;;;;;22.55;42.59;98594.41;20525193;28;20050;-72
2023/03/27 01:22:38;;;;;;;968.25;887.80;;;;;;;22.52;42.59;98565.72;20528416;28;20178;-70
2023/03/27 01:33:09;;;;;;;1005.10;922.92;;;;;;;22.50;42.69;98560.63;20512447;28;20039;-70
2023/03/27 01:43:14;;;;;;;994.13;912.30;;;;;;;22.50;42.77;98554.53;20506417;28;20530;-71
2023/03/27 01:53:17;;;;;;;1007.38;925.13;;;;;;;22.50;42.88;98557.16;20522703;28;20047;-71
2023/03/27 02:03:34;;;;;;;968.13;888.00;;;;;;;22.49;42.74;98544.97;20525186;28;20058;-72
2023/03/27 02:13:47;;;;;;;971.63;891.38;;;;;;;22.48;43.07;98543.31;20515179;28;20054;-71
2023/03/27 02:23:49;;;;;;;974.65;894.15;;;;;;;22.47;42.77;98539.03;20525261;28;21049;-71
2023/03/27 02:34:32;;;;;;;988.90;907.65;;;;;;;22.44;43.29;98513.03;20512574;28;20147;-71
2023/03/27 02:45:15;;;;;;;965.75;885.85;;;;;;;22.45;43.14;98461.91;20331437;28;20074;-71
2023/03/27 02:55:27;;;;;;;959.10;879.67;;;;;;;22.42;43.37;98449.88;20506964;28;20066;-72
2023/03/27 03:05:28;;;;;;;958.92;879.35;;;;;;;22.43;43.31;98434.91;20526727;28;20047;-73
2023/03/27 03:15:29;;;;;;;955.10;875.90;;;;;;;22.41;42.98;98434.25;20534311;28;20966;-72
2023/03/27 03:25:30;;;;;;;967.05;887.17;;;;;;;22.42;43.24;98430.63;20538104;28;21460;-72
2023/03/27 03:35:33;;;;;;;964.25;884.78;;;;;;;22.36;43.27;98418.91;20532594;28;20054;-71
2023/03/27 03:45:34;;;;;;;940.75;862.42;;;;;;;22.37;43.40;98425.81;20527785;28;20055;-74
2023/03/27 03:55:35;;;;;;;930.70;853.03;;;;;;;22.39;43.24;98421.25;20523695;28;20049;-73
2023/03/27 04:05:36;;;;;;;960.45;880.78;;;;;;;22.40;43.47;98412.34;20516909;28;20050;-72
2023/03/27 04:15:37;;;;;;;939.10;860.85;;;;;;;22.42;43.17;98412.16;20522434;28;20558;-74
2023/03/27 04:25:38;;;;;;;965.50;884.97;;;;;;;22.49;45.45;98413.09;20530292;28;20062;-77
2023/03/27 04:35:39;;;;;;;1155.50;999.90;;;;;;;22.52;46.63;98412.72;20532622;28;20622;-78
2023/03/27 04:45:39;;;;;;;1151.93;999.90;;;;;;;22.52;46.60;98399.53;20537523;28;20047;-77
2023/03/27 04:55:40;;;;;;;767.30;699.15;;;;;;;22.56;46.67;98403.50;20532324;28;20136;-72
2023/03/27 05:05:40;;;;;;;739.03;674.00;;;;;;;22.30;43.93;98385.34;20531086;28;20074;-75
2023/03/27 05:15:41;;;;;;;759.10;692.33;;;;;;;22.35;44.32;98370.63;20517238;28;20066;-77
2023/03/27 05:36:17;;;;;;;751.58;685.35;;;;;;;22.40;45.88;98362.25;20524217;28;20101;-77
2023/03/27 05:46:19;;;;;;;728.25;663.80;;;;;;;22.45;46.54;98359.88;20519624;28;20055;-76
2023/03/27 05:56:19;;;;;;;735.85;670.40;;;;;;;22.48;46.26;98345.53;20525950;28;20140;-78
2023/03/27 06:06:20;;;;;;;749.00;683.15;;;;;;;22.49;46.46;98341.88;20529332;28;20046;-73
2023/03/27 06:16:21;;;;;;;758.75;692.17;;;;;;;22.46;45.83;98334.31;20524368;28;21618;-71
2023/03/27 06:26:21;;;;;;;734.42;669.45;;;;;;;22.45;46.26;98338.78;20526410;28;20933;-71
2023/03/27 06:36:21;;;;;;;738.08;673.00;;;;;;;22.48;46.67;98329.69;20528971;28;20043;-72
2023/03/27 06:46:22;;;;;;;762.47;695.42;;;;;;;22.49;46.94;98329.50;20522531;28;20047;-73
2023/03/27 06:56:22;;;;;;;823.22;751.97;;;;;;;22.51;46.79;98327.53;20524328;28;20026;-72
2023/03/27 07:06:24;;;;;;;1172.63;999.90;;;;;;;22.51;46.84;98322.25;20515872;28;20094;-70
2023/03/27 07:16:24;;;;;;;1170.63;999.90;;;;;;;22.52;46.63;98333.59;20520419;28;20039;-71
2023/03/27 07:26:25;;;;;;;1178.47;999.90;;;;;;;22.51;46.89;98345.19;20526081;28;20054;-70
2023/03/27 07:36:27;;;;;;;1183.82;999.90;;;;;;;22.53;46.46;98344.00;20519579;28;20117;-71
2023/03/27 07:46:28;;;;;;;1175.93;999.90;;;;;;;22.52;46.57;98350.28;20514045;28;20030;-72
2023/03/27 07:56:32;;;;;;;1185.03;999.90;;;;;;;22.51;46.66;98353.91;20531435;28;20074;-73
2023/03/27 08:06:32;;;;;;;1186.63;999.90;;;;;;;22.50;46.80;98354.91;20518383;28;20418;-71
2023/03/27 08:16:35;;;;;;;1184.45;999.90;;;;;;;22.52;46.29;98355.53;20532162;28;20035;-71
2023/03/27 08:26:35;;;;;;;1183.28;999.90;;;;;;;22.53;46.39;98364.25;20531662;28;20055;-71
2023/03/27 08:36:37;;;;;;;1186.30;999.90;;;;;;;22.52;46.46;98374.00;20528810;28;20070;-72
2023/03/27 08:47:03;;;;;;;1178.15;999.90;;;;;;;22.51;46.47;98376.84;20532195;28;20039;-72
2023/03/27 08:57:27;;;;;;;1184.22;999.90;;;;;;;22.50;46.34;98388.38;20525013;28;20043;-72
2023/03/27 09:07:48;;;;;;;1182.53;999.90;;;;;;;22.52;46.10;98395.09;20531402;28;20043;-73
2023/03/27 09:17:52;;;;;;;1181.03;999.90;;;;;;;22.51;46.22;98392.66;20520943;28;20043;-72
2023/03/27 09:27:53;;;;;;;1184.50;999.90;;;;;;;22.51;46.28;98408.47;20525212;28;20081;-73
2023/03/27 09:37:59;;;;;;;1183.10;999.90;;;;;;;22.50;46.08;98415.56;20521701;28;20074;-72
2023/03/27 09:48:09;;;;;;;1183.75;999.90;;;;;;;22.51;46.16;98433.03;20523105;28;20093;-71
2023/03/27 09:58:17;;;;;;;1183.35;999.90;;;;;;;22.50;46.76;98444.56;20519893;28;20043;-71
2023/03/27 10:08:30;;;;;;;1181.70;999.90;;;;;;;22.49;46.96;98450.03;20519615;28;20047;-72
2023/03/27 10:18:33;;;;;;;1181.57;999.90;;;;;;;22.49;46.57;98453.47;20517551;28;20064;-72
2023/03/27 10:28:35;;;;;;;1181.15;999.90;;;;;;;22.49;46.44;98448.19;20486789;28;20082;-73
2023/03/27 10:38:40;;;;;;;1180.33;999.90;;;;;;;22.51;46.11;98477.06;20490311;28;20086;-71
2023/03/27 10:49:05;;;;;;;1185.50;999.90;;;;;;;22.50;46.32;98478.84;20513856;28;20082;-72
2023/03/27 10:59:19;;;;;;;1183.05;999.90;;;;;;;22.50;46.03;98478.03;20503621;28;20035;-71
2023/03/27 11:09:36;;;;;;;1180.47;999.90;;;;;;;22.50;45.94;98485.97;20513269;28;20078;-71
2023/03/27 11:19:52;;;;;;;1183.85;999.90;;;;;;;22.49;46.13;98490.38;20507525;28;20070;-71
2023/03/27 11:30:11;;;;;;;1182.15;999.90;;;;;;;22.48;45.53;98495.84;20513422;28;20043;-72
2023/03/27 11:40:19;;;;;;;1179.03;999.90;;;;;;;22.41;44.97;98503.66;20535141;28;22442;-72
2023/03/27 11:50:38;;;;;;;1178.80;999.90;;;;;;;22.49;47.00;98500.94;20520307;28;20065;-71
2023/03/27 12:00:54;;;;;;;1181.00;999.90;;;;;;;22.55;49.69;98502.06;20527067;28;20046;-70
2023/03/27 12:10:58;;;;;;;1183.53;999.90;;;;;;;22.58;48.99;98508.81;20523878;28;20074;-70
2023/03/27 12:21:16;;;;;;;1176.85;999.90;;;;;;;22.58;48.70;98530.72;20521813;28;20160;-72
2023/03/27 12:31:59;;;;;;;1172.57;999.90;;;;;;;22.56;48.22;98543.28;20518147;28;20138;-74
2023/03/27 12:42:12;;;;;;;1169.88;999.90;;;;;;;22.57;47.84;98546.72;20527155;28;20051;-74
2023/03/27 12:52:13;;;;;;;1172.72;999.90;;;;;;;22.58;47.74;98570.28;20527578;28;20077;-75
2023/03/27 13:02:14;;;;;;;1173.43;999.90;;;;;;;22.60;47.37;98604.44;20518704;28;20051;-76
2023/03/27 13:12:24;;;;;;;1171.57;999.90;;;;;;;22.44;44.39;98614.03;20523059;28;20183;-76
2023/03/27 13:22:36;;;;;;;1171.05;999.90;;;;;;;22.53;46.03;98639.41;20535738;28;20054;-76
2023/03/27 13:32:38;;;;;;;1169.72;999.90;;;;;;;22.54;45.89;98677.16;20530321;28;20058;-75
2023/03/27 13:42:45;;;;;;;1164.33;999.90;;;;;;;22.53;45.76;98693.97;20521946;28;20165;-75
2023/03/27 13:53:06;;;;;;;1172.35;999.90;;;;;;;22.51;45.65;98722.34;20511985;28;21067;-74
2023/03/27 14:03:19;;;;;;;1166.18;999.90;;;;;;;22.54;45.85;98765.03;20514163;28;20083;-76
2023/03/27 14:13:37;;;;;;;1167.55;999.90;;;;;;;22.55;46.01;98810.69;20520226;28;20043;-76
2023/03/27 14:24:25;;;;;;;1164.85;999.90;;;;;;;22.54;45.59;98843.31;20521535;28;20047;-74
2023/03/27 14:34:28;;;;;;;1156.13;999.90;;;;;;;22.39;42.76;98845.81;20527988;28;20046;-75
2023/03/27 14:44:30;;;;;;;1156.32;999.90;;;;;;;22.42;43.37;98903.47;20507126;28;20066;-74
2023/03/27 14:54:31;;;;;;;1157.00;999.90;;;;;;;22.46;43.70;98925.09;20521822;28;20134;-73
2023/03/27 15:04:33;;;;;;;1160.50;999.90;;;;;;;22.49;44.43;98930.06;20512981;28;21679;-75
2023/03/27 15:14:36;;;;;;;1155.97;999.90;;;;;;;22.50;44.06;98956.25;20514201;28;20039;-74
2023/03/27 15:24:47;;;;;;;1163.80;999.90;;;;;;;22.50;44.15;98980.00;20505257;28;20288;-74
2023/03/27 15:34:56;;;;;;;1162.68;999.90;;;;;;;22.47;44.58;99004.06;20489258;28;20054;-74
2023/03/27 15:45:02;;;;;;;1158.38;999.90;;;;;;;22.45;44.09;99048.25;20508687;28;20093;-73
2023/03/27 15:55:02;;;;;;;1162.55;999.90;;;;;;;22.44;44.30;99070.31;20507868;28;20127;-73
2023/03/27 16:05:17;;;;;;;1163.05;999.90;;;;;;;22.46;44.68;99112.34;20501068;28;20043;-76
2023/03/27 16:15:37;;;;;;;1163.60;999.90;;;;;;;22.46;45.26;99152.75;20518206;28;20312;-76
2023/03/27 16:25:40;;;;;;;1163.20;999.90;;;;;;;22.32;44.13;99169.94;20530340;28;20132;-74
2023/03/27 16:35:40;;;;;;;1148.93;999.90;;;;;;;22.25;42.76;99219.00;20495952;28;20085;-76
2023/03/27 16:45:41;;;;;;;1159.03;999.90;;;;;;;22.29;44.27;99251.19;20518892;28;21997;-79
2023/03/27 16:55:43;;;;;;;1154.28;999.90;;;;;;;22.28;44.90;99275.91;20501664;28;20043;-72
2023/03/27 17:05:44;;;;;;;1152.15;999.90;;;;;;;22.26;45.47;99289.25;20511219;28;20050;-71
2023/03/27 17:15:49;;;;;;;1149.20;999.90;;;;;;;22.28;45.54;99347.94;20516437;28;20055;-71
2023/03/27 17:25:49;;;;;;;1156.82;999.90;;;;;;;22.29;45.48;99356.66;20502795;28;20059;-71
2023/03/27 17:35:50;;;;;;;1153.28;999.90;;;;;;;22.29;46.52;99375.13;20523051;28;20047;-71
2023/03/27 17:45:51;;;;;;;1144.22;999.90;;;;;;;22.29;46.71;99393.59;20507774;28;20059;-71
2023/03/27 17:55:52;;;;;;;1150.78;999.90;;;;;;;22.29;47.16;99414.69;20522900;28;20054;-71
2023/03/27 18:06:05;;;;;;;1147.47;999.90;;;;;;;22.30;47.98;99438.28;20522505;28;20039;-72
2023/03/27 18:16:09;;;;;;;1135.28;999.90;;;;;;;22.32;48.91;99469.78;20517122;28;20066;-71
2023/03/27 18:26:10;;;;;;;1150.18;999.90;;;;;;;22.32;49.11;99490.88;20505933;28;20047;-72
2023/03/27 18:36:11;;;;;;;1142.25;999.90;;;;;;;22.28;48.42;99498.25;20519686;28;20047;-72
2023/03/27 18:46:15;;;;;;;1138.50;999.90;;;;;;;22.17;45.88;99487.91;20521162;28;20401;-71
2023/03/27 18:56:17;;;;;;;1130.95;999.90;;;;;;;22.18;45.76;99511.50;20507270;28;20038;-72
2023/03/27 19:06:19;;;;;;;1135.87;999.90;;;;;;;22.15;45.60;99511.78;20509272;28;20441;-71
2023/03/27 19:16:19;;;;;;;1119.55;999.90;;;;;;;22.13;45.80;99548.03;20504127;28;20223;-72
2023/03/27 19:26:20;;;;;;;1130.68;999.90;;;;;;;22.07;45.19;99559.16;20501052;28;20161;-71
2023/03/27 19:36:23;;;;;;;1138.68;999.90;;;;;;;22.04;45.47;99575.25;20509316;28;20082;-72
2023/03/27 19:46:25;;;;;;;1141.60;999.90;;;;;;;22.02;45.69;99583.31;20503165;28;21317;-70
2023/03/27 19:56:33;;;;;;;1137.20;999.90;;;;;;;22.00;45.73;99587.06;20511966;28;20520;-71
2023/03/27 20:06:36;;;;;;;1147.95;999.90;;;;;;;21.96;46.14;99594.44;20516390;28;20885;-70
2023/03/27 20:16:38;;;;;;;1138.38;999.90;;;;;;;21.91;46.83;99596.66;20505671;28;20067;-71
2023/03/27 20:26:40;;;;;;;1133.78;999.90;;;;;;;21.88;46.62;99603.03;20511418;28;20098;-70
2023/03/27 20:36:42;;;;;;;1133.25;999.90;;;;;;;21.84;46.33;99622.75;20517230;28;20071;-71
2023/03/27 20:46:49;;;;;;;1139.07;999.90;;;;;;;21.84;46.61;99609.56;20516379;28;20047;-71
2023/03/27 20:56:50;;;;;;;1144.43;999.90;;;;;;;21.82;46.72;99647.56;20524470;28;20053;-71
2023/03/27 21:06:53;;;;;;;1131.28;999.90;;;;;;;21.78;46.46;99659.38;20517774;28;20039;-71
2023/03/27 21:16:54;;;;;;;1136.28;999.90;;;;;;;21.78;46.92;99668.09;20505224;28;20053;-71
2023/03/27 21:26:54;;;;;;;1139.68;999.90;;;;;;;21.76;46.24;99659.50;20493396;28;20039;-71
2023/03/27 21:36:55;;;;;;;1132.72;999.90;;;;;;;21.72;46.24;99676.56;20521462;28;20043;-70
2023/03/27 21:46:56;;;;;;;1109.40;999.90;;;;;;;21.69;46.03;99697.91;20515370;28;20384;-70
2023/03/27 21:56:57;;;;;;;1125.75;999.90;;;;;;;21.68;45.72;99701.53;20497888;28;20043;-72
2023/03/27 22:06:57;;;;;;;1121.35;999.90;;;;;;;21.67;45.91;99705.97;20517043;28;20462;-71
2023/03/27 22:16:58;;;;;;;1130.15;999.90;;;;;;;21.64;46.17;99727.34;20507039;28;20515;-71
2023/03/27 22:26:58;;;;;;;1133.80;999.90;;;;;;;21.64;45.81;99740.50;20508978;28;20525;-71
2023/03/27 22:37:00;;;;;;;1131.95;999.90;;;;;;;21.63;45.75;99756.44;20507399;28;20082;-70
2023/03/27 22:47:00;;;;;;;1129.97;999.90;;;;;;;21.59;45.69;99787.50;20508493;28;20054;-71
2023/03/27 22:57:01;;;;;;;1136.32;999.90;;;;;;;21.59;45.26;99800.66;20506849;28;20070;-71
2023/03/27 23:07:01;;;;;;;1135.43;999.90;;;;;;;21.54;45.03;99827.38;20490501;28;20078;-71
2023/03/27 23:17:02;;;;;;;1128.93;999.90;;;;;;;21.54;45.55;99835.28;20505413;28;20043;-71
2023/03/27 23:27:03;;;;;;;1135.78;999.90;;;;;;;21.52;45.15;99854.81;20502804;28;20051;-70
2023/03/27 23:37:04;;;;;;;1135.35;999.90;;;;;;;21.48;45.40;99870.06;20524454;28;20133;-71
2023/03/27 23:47:06;;;;;;;1138.50;999.90;;;;;;;21.49;45.39;99881.44;20511446;28;20047;-71
2023/03/27 23:57:07;;;;;;;1135.30;999.90;;;;;;;21.43;45.27;99888.94;20522006;28;20427;-69
